»·PEaware :: N826BR KBUR-KLAS

N826BR :: KBUR-KLAS

FLIGHT INFORMATION

Flight Status: Arrived
Operator: Privately registered:
United States
More flights under this callsign
Pilot: Chris C. (17882)
Aircraft: BOMBARDIER BD-100 CHALLENGER 300
(CL30)
More flights by this aircraft type
Origin: KBUR Bob Hope-Burbank
United States
Destination: KLAS McCarran Intl
United States
More flights between these airports :: More routes between these airports
Route: +SLAPP1 MISEN KEPEC6
File this flight plan on PilotEdge
Remarks: I-5
Altitude:
(Current/Filed)
25,000ft
Speed:
(Current/Filed)
440kts
Departed: 19-Mar-20 11:46 AM
Arrived: 19-Mar-20 12:32 PM
Distance/Time
Traveled:
194nm/0:46
Distance/Time
To Go:
Arrived

Flight Plot

Page will automatically refresh every two minutes.

Flight plan parsing failed; only flown route is shown


Map Options




Map Legend


Flown Route
Filed Route
Departure Airport
Arrival Airport
Navaid (VOR, NDB)
Fix

Horizontal Profiles

Position Reports

Time Latitude Longitude Heading Altitude Ground
Speed
19-Mar-20 11:13 34.200215 -118.358844 258 724ft 0kts
19-Mar-20 11:15 34.200215 -118.358844 258 724ft 0kts
19-Mar-20 11:15 34.200215 -118.358844 258 724ft 0kts
19-Mar-20 11:16 34.200215 -118.358844 258 724ft 0kts
19-Mar-20 11:17 34.200215 -118.358844 258 724ft 0kts
19-Mar-20 11:18 34.200215 -118.358844 258 724ft 0kts
19-Mar-20 11:19 34.200215 -118.358844 258 724ft 0kts
19-Mar-20 11:20 34.200215 -118.358844 258 724ft 0kts
19-Mar-20 11:21 34.200215 -118.358844 258 724ft 0kts
19-Mar-20 11:22 34.200215 -118.358844 258 724ft 0kts
19-Mar-20 11:23 34.200215 -118.358844 258 724ft 0kts
19-Mar-20 11:24 34.200215 -118.358844 258 724ft 0kts
19-Mar-20 11:25 34.200215 -118.358844 258 724ft 0kts
19-Mar-20 11:26 34.200215 -118.358844 258 724ft 0kts
19-Mar-20 11:27 34.200215 -118.358844 258 724ft 0kts
19-Mar-20 11:28 34.200215 -118.358844 258 724ft 0kts
19-Mar-20 11:29 34.200215 -118.358844 258 724ft 0kts
19-Mar-20 11:30 34.200215 -118.358844 258 724ft 0kts
19-Mar-20 11:31 34.200215 -118.358844 258 724ft 0kts
19-Mar-20 11:32 34.200215 -118.358844 258 724ft 0kts
19-Mar-20 11:33 34.200215 -118.358844 258 724ft 0kts
19-Mar-20 11:34 34.200215 -118.358844 258 724ft 0kts
19-Mar-20 11:35 34.200215 -118.358844 258 724ft 0kts
19-Mar-20 11:36 34.200038 -118.359080 176 723ft 3kts
19-Mar-20 11:37 34.199774 -118.358924 126 722ft 0kts
19-Mar-20 11:38 34.199648 -118.358156 25 720ft 6kts
19-Mar-20 11:39 34.203275 -118.359122 347 736ft 15kts
19-Mar-20 11:40 34.206809 -118.360102 346 749ft 12kts
19-Mar-20 11:41 34.210498 -118.361108 348 768ft 15kts
19-Mar-20 11:42 34.211432 -118.361261 28 770ft 0kts
19-Mar-20 11:43 34.211432 -118.361261 28 770ft 0kts
19-Mar-20 11:44 34.211748 -118.361004 46 770ft 7kts
19-Mar-20 11:45 34.192936 -118.357143 190 1674ft 171kts
19-Mar-20 11:46 34.159865 -118.392561 222 4030ft 171kts
19-Mar-20 11:47 34.156002 -118.443508 312 4010ft 189kts
19-Mar-20 11:48 34.188784 -118.488189 330 4657ft 149kts
19-Mar-20 11:49 34.233521 -118.473516 27 6839ft 195kts
19-Mar-20 11:50 34.285210 -118.437404 27 10682ft 232kts
19-Mar-20 11:51 34.348913 -118.393152 28 13023ft 324kts
19-Mar-20 11:52 34.435480 -118.344795 18 17125ft 356kts
19-Mar-20 11:53 34.518923 -118.276554 36 21056ft 386kts
19-Mar-20 11:54 34.606094 -118.189452 37 23085ft 447kts
19-Mar-20 11:55 34.674265 -118.061124 76 23848ft 476kts
19-Mar-20 11:56 34.695667 -117.898711 86 25050ft 493kts
19-Mar-20 11:57 34.705466 -117.731955 87 25047ft 495kts
19-Mar-20 11:58 34.712088 -117.564511 88 25058ft 496kts
19-Mar-20 11:59 34.742193 -117.404840 71 25060ft 486kts
19-Mar-20 12:00 34.783371 -117.248327 72 25054ft 486kts
19-Mar-20 12:01 34.824727 -117.091433 72 25061ft 488kts
19-Mar-20 12:02 34.866037 -116.933960 73 25066ft 488kts
19-Mar-20 12:03 34.907006 -116.776669 73 25066ft 486kts
19-Mar-20 12:04 34.972969 -116.634472 55 25067ft 486kts
19-Mar-20 12:05 35.048875 -116.499087 54 24771ft 477kts
19-Mar-20 12:06 35.127574 -116.373177 44 24085ft 459kts
19-Mar-20 12:07 35.216637 -116.260855 44 24080ft 463kts
19-Mar-20 12:08 35.307013 -116.147182 44 24081ft 470kts
19-Mar-20 12:09 35.398437 -116.031865 44 23959ft 467kts
19-Mar-20 12:10 35.487597 -115.919051 45 20647ft 449kts
19-Mar-20 12:11 35.565893 -115.819639 45 18434ft 380kts
19-Mar-20 12:12 35.638306 -115.727462 45 14243ft 372kts
19-Mar-20 12:13 35.704098 -115.643461 45 12991ft 319kts
19-Mar-20 12:14 35.772431 -115.578088 5 13008ft 312kts
19-Mar-20 12:15 35.858315 -115.570050 359 12992ft 308kts
19-Mar-20 12:16 35.943474 -115.565025 1 12986ft 305kts
19-Mar-20 12:17 35.993386 -115.491151 68 11965ft 294kts
19-Mar-20 12:18 36.023744 -115.398267 70 10996ft 290kts
19-Mar-20 12:19 36.025612 -115.302845 98 9961ft 277kts
19-Mar-20 12:20 36.019032 -115.209288 98 8987ft 263kts
19-Mar-20 12:21 36.013239 -115.124051 98 8075ft 242kts
19-Mar-20 12:22 36.007959 -115.041348 98 8002ft 240kts
19-Mar-20 12:23 36.003177 -114.960953 98 8005ft 225kts
19-Mar-20 12:24 35.999452 -114.887569 89 7993ft 201kts
19-Mar-20 12:25 36.037179 -114.885392 291 7199ft 181kts
19-Mar-20 12:26 36.059567 -114.941614 288 5896ft 182kts
19-Mar-20 12:27 36.070319 -115.000267 274 4808ft 162kts
19-Mar-20 12:28 36.073794 -115.053597 265 3327ft 151kts
19-Mar-20 12:29 36.073709 -115.104019 265 2530ft 140kts
19-Mar-20 12:30 36.073577 -115.143772 269 2095ft 49kts
19-Mar-20 12:31 36.074642 -115.150400 303 2118ft 0kts
19-Mar-20 12:32 36.074985 -115.150942 312 2120ft 9kts
19-Mar-20 12:33 36.078035 -115.154382 267 2127ft 16kts
19-Mar-20 12:34 36.078022 -115.158547 269 2143ft 14kts
19-Mar-20 12:35 36.078023 -115.162487 269 2156ft 13kts
19-Mar-20 12:36 36.078012 -115.166242 269 2168ft 21kts
19-Mar-20 12:37 36.078336 -115.170968 331 2180ft 13kts
19-Mar-20 12:38 36.080961 -115.169547 25 2169ft 7kts
19-Mar-20 12:39 36.085702 -115.166840 24 2151ft 20kts
19-Mar-20 12:40 36.089874 -115.164451 25 2134ft 13kts
19-Mar-20 12:41 36.093337 -115.162472 24 2116ft 18kts
19-Mar-20 12:42 36.097805 -115.160503 287 2102ft 5kts
19-Mar-20 12:43 36.098747 -115.160787 40 2102ft 0kts
19-Mar-20 12:44 36.098747 -115.160787 40 2102ft 0kts
19-Mar-20 12:45 36.098747 -115.160787 40 2102ft 0kts

Navigation Log

Ident Type
Flight plan parsing failed, navigation log unavailable